sensor_id;sensor_type;location;lat;lon;timestamp;temperature;humidity
66598;DHT22;57424;53.128;6.406;2023-11-21T00:00:49;11.40;83.80
66598;DHT22;57424;53.128;6.406;2023-11-21T00:03:15;11.40;83.80
66598;DHT22;57424;53.128;6.406;2023-11-21T00:05:41;11.40;83.80
66598;DHT22;57424;53.128;6.406;2023-11-21T00:08:09;11.40;83.80
66598;DHT22;57424;53.128;6.406;2023-11-21T00:10:35;11.40;83.80
66598;DHT22;57424;53.128;6.406;2023-11-21T00:13:03;11.40;83.80
66598;DHT22;57424;53.128;6.406;2023-11-21T00:15:28;11.40;83.80
66598;DHT22;57424;53.128;6.406;2023-11-21T00:17:54;11.40;83.80
66598;DHT22;57424;53.128;6.406;2023-11-21T00:20:20;11.40;83.80
66598;DHT22;57424;53.128;6.406;2023-11-21T00:22:46;11.40;83.80
66598;DHT22;57424;53.128;6.406;2023-11-21T00:25:12;11.40;83.80
66598;DHT22;57424;53.128;6.406;2023-11-21T00:27:39;11.40;83.90
66598;DHT22;57424;53.128;6.406;2023-11-21T00:30:05;11.40;83.80
66598;DHT22;57424;53.128;6.406;2023-11-21T00:32:31;11.40;83.80
66598;DHT22;57424;53.128;6.406;2023-11-21T00:34:56;11.40;83.80
66598;DHT22;57424;53.128;6.406;2023-11-21T00:37:22;11.40;83.80
66598;DHT22;57424;53.128;6.406;2023-11-21T00:39:49;11.40;83.80
66598;DHT22;57424;53.128;6.406;2023-11-21T00:42:15;11.40;83.90
66598;DHT22;57424;53.128;6.406;2023-11-21T00:44:40;11.40;83.80
66598;DHT22;57424;53.128;6.406;2023-11-21T00:47:05;11.30;83.80
66598;DHT22;57424;53.128;6.406;2023-11-21T00:49:31;11.40;83.80
66598;DHT22;57424;53.128;6.406;2023-11-21T00:51:57;11.40;83.90
66598;DHT22;57424;53.128;6.406;2023-11-21T00:54:23;11.40;83.80
66598;DHT22;57424;53.128;6.406;2023-11-21T00:56:48;11.40;83.90
66598;DHT22;57424;53.128;6.406;2023-11-21T00:59:14;11.30;83.80
66598;DHT22;57424;53.128;6.406;2023-11-21T01:01:40;11.40;83.90
66598;DHT22;57424;53.128;6.406;2023-11-21T01:04:05;11.40;83.90
66598;DHT22;57424;53.128;6.406;2023-11-21T01:06:32;11.40;83.90
66598;DHT22;57424;53.128;6.406;2023-11-21T01:08:57;11.40;83.90
66598;DHT22;57424;53.128;6.406;2023-11-21T01:11:23;11.40;83.90
66598;DHT22;57424;53.128;6.406;2023-11-21T01:13:49;11.40;83.90
66598;DHT22;57424;53.128;6.406;2023-11-21T01:16:14;11.30;83.80
66598;DHT22;57424;53.128;6.406;2023-11-21T01:18:39;11.30;83.80
66598;DHT22;57424;53.128;6.406;2023-11-21T01:21:05;11.30;83.80
66598;DHT22;57424;53.128;6.406;2023-11-21T01:23:31;11.30;83.80
66598;DHT22;57424;53.128;6.406;2023-11-21T01:25:56;11.30;83.80
66598;DHT22;57424;53.128;6.406;2023-11-21T01:28:22;11.30;83.90
66598;DHT22;57424;53.128;6.406;2023-11-21T01:30:48;11.30;83.90
66598;DHT22;57424;53.128;6.406;2023-11-21T01:33:13;11.30;83.90
66598;DHT22;57424;53.128;6.406;2023-11-21T01:35:41;11.30;83.90
66598;DHT22;57424;53.128;6.406;2023-11-21T01:38:07;11.30;83.90
66598;DHT22;57424;53.128;6.406;2023-11-21T01:40:33;11.30;83.90
66598;DHT22;57424;53.128;6.406;2023-11-21T01:42:59;11.30;83.90
66598;DHT22;57424;53.128;6.406;2023-11-21T01:45:24;11.30;83.90
66598;DHT22;57424;53.128;6.406;2023-11-21T01:47:50;11.30;83.90
66598;DHT22;57424;53.128;6.406;2023-11-21T01:50:16;11.30;83.90
66598;DHT22;57424;53.128;6.406;2023-11-21T01:52:43;11.30;83.90
66598;DHT22;57424;53.128;6.406;2023-11-21T01:55:10;11.30;83.90
66598;DHT22;57424;53.128;6.406;2023-11-21T01:57:36;11.30;83.90
66598;DHT22;57424;53.128;6.406;2023-11-21T02:00:03;11.30;83.90
66598;DHT22;57424;53.128;6.406;2023-11-21T02:02:43;11.30;83.90
66598;DHT22;57424;53.128;6.406;2023-11-21T02:05:14;11.30;83.90
66598;DHT22;57424;53.128;6.406;2023-11-21T02:07:40;11.30;83.90
66598;DHT22;57424;53.128;6.406;2023-11-21T02:10:07;11.30;83.90
66598;DHT22;57424;53.128;6.406;2023-11-21T02:12:33;11.30;83.90
66598;DHT22;57424;53.128;6.406;2023-11-21T02:15:03;11.30;83.90
66598;DHT22;57424;53.128;6.406;2023-11-21T02:17:30;11.30;84.00
66598;DHT22;57424;53.128;6.406;2023-11-21T02:19:57;11.30;83.90
66598;DHT22;57424;53.128;6.406;2023-11-21T02:22:23;11.30;83.90
66598;DHT22;57424;53.128;6.406;2023-11-21T02:24:51;11.30;84.00
66598;DHT22;57424;53.128;6.406;2023-11-21T02:27:17;11.30;83.90
66598;DHT22;57424;53.128;6.406;2023-11-21T02:29:47;11.30;83.90
66598;DHT22;57424;53.128;6.406;2023-11-21T02:32:12;11.30;84.00
66598;DHT22;57424;53.128;6.406;2023-11-21T02:34:38;11.30;84.00
66598;DHT22;57424;53.128;6.406;2023-11-21T02:37:04;11.30;84.00
66598;DHT22;57424;53.128;6.406;2023-11-21T02:39:31;11.30;84.00
66598;DHT22;57424;53.128;6.406;2023-11-21T02:41:57;11.30;84.00
66598;DHT22;57424;53.128;6.406;2023-11-21T02:44:22;11.30;84.00
66598;DHT22;57424;53.128;6.406;2023-11-21T02:46:48;11.30;84.00
66598;DHT22;57424;53.128;6.406;2023-11-21T02:49:13;11.30;84.00
66598;DHT22;57424;53.128;6.406;2023-11-21T02:51:38;11.20;84.50
66598;DHT22;57424;53.128;6.406;2023-11-21T02:54:05;11.20;83.90
66598;DHT22;57424;53.128;6.406;2023-11-21T02:56:32;11.20;84.00
66598;DHT22;57424;53.128;6.406;2023-11-21T02:58:59;11.30;84.00
66598;DHT22;57424;53.128;6.406;2023-11-21T03:01:25;11.30;84.00
66598;DHT22;57424;53.128;6.406;2023-11-21T03:03:50;11.30;84.00
66598;DHT22;57424;53.128;6.406;2023-11-21T03:06:21;11.30;84.00
66598;DHT22;57424;53.128;6.406;2023-11-21T03:08:47;11.30;84.00
66598;DHT22;57424;53.128;6.406;2023-11-21T03:11:12;11.20;84.00
66598;DHT22;57424;53.128;6.406;2023-11-21T03:13:39;11.30;84.00
66598;DHT22;57424;53.128;6.406;2023-11-21T03:16:07;11.20;84.00
66598;DHT22;57424;53.128;6.406;2023-11-21T03:18:33;11.20;84.00
66598;DHT22;57424;53.128;6.406;2023-11-21T03:20:59;11.20;84.00
66598;DHT22;57424;53.128;6.406;2023-11-21T03:23:24;11.30;84.00
66598;DHT22;57424;53.128;6.406;2023-11-21T03:25:50;11.20;84.00
66598;DHT22;57424;53.128;6.406;2023-11-21T03:28:15;11.20;84.00
66598;DHT22;57424;53.128;6.406;2023-11-21T03:30:41;11.30;84.10
66598;DHT22;57424;53.128;6.406;2023-11-21T03:33:06;11.30;84.10
66598;DHT22;57424;53.128;6.406;2023-11-21T03:35:33;11.30;84.10
66598;DHT22;57424;53.128;6.406;2023-11-21T03:37:58;11.30;84.10
66598;DHT22;57424;53.128;6.406;2023-11-21T03:40:24;11.20;84.00
66598;DHT22;57424;53.128;6.406;2023-11-21T03:42:49;11.30;84.10
66598;DHT22;57424;53.128;6.406;2023-11-21T03:45:15;11.20;84.00
66598;DHT22;57424;53.128;6.406;2023-11-21T03:47:41;11.30;84.10
66598;DHT22;57424;53.128;6.406;2023-11-21T03:50:07;11.20;84.00
66598;DHT22;57424;53.128;6.406;2023-11-21T03:52:33;11.20;84.00
66598;DHT22;57424;53.128;6.406;2023-11-21T03:54:59;11.20;84.00
66598;DHT22;57424;53.128;6.406;2023-11-21T03:57:24;11.20;84.00
66598;DHT22;57424;53.128;6.406;2023-11-21T03:59:50;11.20;84.00
66598;DHT22;57424;53.128;6.406;2023-11-21T04:02:15;11.20;84.00
66598;DHT22;57424;53.128;6.406;2023-11-21T04:04:41;11.20;84.00
66598;DHT22;57424;53.128;6.406;2023-11-21T04:07:07;11.20;84.00
66598;DHT22;57424;53.128;6.406;2023-11-21T04:09:32;11.20;84.10
66598;DHT22;57424;53.128;6.406;2023-11-21T04:11:57;11.30;84.10
66598;DHT22;57424;53.128;6.406;2023-11-21T04:14:23;11.20;84.00
66598;DHT22;57424;53.128;6.406;2023-11-21T04:16:48;11.20;84.00
66598;DHT22;57424;53.128;6.406;2023-11-21T04:19:14;11.20;84.00
66598;DHT22;57424;53.128;6.406;2023-11-21T04:21:40;11.20;84.10
66598;DHT22;57424;53.128;6.406;2023-11-21T04:24:06;11.20;84.10
66598;DHT22;57424;53.128;6.406;2023-11-21T04:26:31;11.20;84.10
66598;DHT22;57424;53.128;6.406;2023-11-21T04:28:57;11.20;84.00
66598;DHT22;57424;53.128;6.406;2023-11-21T04:31:22;11.20;84.10
66598;DHT22;57424;53.128;6.406;2023-11-21T04:33:48;11.20;84.00
66598;DHT22;57424;53.128;6.406;2023-11-21T04:36:14;11.20;84.00
66598;DHT22;57424;53.128;6.406;2023-11-21T04:38:39;11.20;84.10
66598;DHT22;57424;53.128;6.406;2023-11-21T04:41:06;11.20;84.10
66598;DHT22;57424;53.128;6.406;2023-11-21T04:43:31;11.20;84.10
66598;DHT22;57424;53.128;6.406;2023-11-21T04:45:57;11.20;84.10
66598;DHT22;57424;53.128;6.406;2023-11-21T04:48:22;11.20;84.10
66598;DHT22;57424;53.128;6.406;2023-11-21T04:50:48;11.20;84.10
66598;DHT22;57424;53.128;6.406;2023-11-21T04:53:13;11.20;84.10
66598;DHT22;57424;53.128;6.406;2023-11-21T04:55:40;11.20;84.10
66598;DHT22;57424;53.128;6.406;2023-11-21T04:58:05;11.20;84.10
66598;DHT22;57424;53.128;6.406;2023-11-21T05:00:31;11.20;84.10
66598;DHT22;57424;53.128;6.406;2023-11-21T05:02:57;11.20;84.10
66598;DHT22;57424;53.128;6.406;2023-11-21T05:05:22;11.20;84.10
66598;DHT22;57424;53.128;6.406;2023-11-21T05:07:48;11.20;84.10
66598;DHT22;57424;53.128;6.406;2023-11-21T05:10:14;11.20;84.10
66598;DHT22;57424;53.128;6.406;2023-11-21T05:12:40;11.20;84.10
66598;DHT22;57424;53.128;6.406;2023-11-21T05:15:06;11.20;84.10
66598;DHT22;57424;53.128;6.406;2023-11-21T05:17:35;11.20;84.10
66598;DHT22;57424;53.128;6.406;2023-11-21T05:20:01;11.20;84.20
66598;DHT22;57424;53.128;6.406;2023-11-21T05:22:29;11.20;84.20
66598;DHT22;57424;53.128;6.406;2023-11-21T05:24:55;11.20;84.10
66598;DHT22;57424;53.128;6.406;2023-11-21T05:27:20;11.20;84.10
66598;DHT22;57424;53.128;6.406;2023-11-21T05:29:46;11.20;84.10
66598;DHT22;57424;53.128;6.406;2023-11-21T05:32:11;11.20;84.10
66598;DHT22;57424;53.128;6.406;2023-11-21T05:34:37;11.20;84.10
66598;DHT22;57424;53.128;6.406;2023-11-21T05:37:02;11.20;84.20
66598;DHT22;57424;53.128;6.406;2023-11-21T05:39:28;11.20;84.20
66598;DHT22;57424;53.128;6.406;2023-11-21T05:41:53;11.20;84.20
66598;DHT22;57424;53.128;6.406;2023-11-21T05:44:19;11.20;84.20
66598;DHT22;57424;53.128;6.406;2023-11-21T05:46:45;11.20;84.10
66598;DHT22;57424;53.128;6.406;2023-11-21T05:49:10;11.20;84.20
66598;DHT22;57424;53.128;6.406;2023-11-21T05:51:36;11.20;84.20
66598;DHT22;57424;53.128;6.406;2023-11-21T05:54:02;11.20;84.20
66598;DHT22;57424;53.128;6.406;2023-11-21T05:56:28;11.20;84.20
66598;DHT22;57424;53.128;6.406;2023-11-21T05:58:53;11.20;84.20
66598;DHT22;57424;53.128;6.406;2023-11-21T06:01:19;11.20;84.20
66598;DHT22;57424;53.128;6.406;2023-11-21T06:03:44;11.20;84.20
66598;DHT22;57424;53.128;6.406;2023-11-21T06:06:11;11.20;84.20
66598;DHT22;57424;53.128;6.406;2023-11-21T06:08:36;11.20;84.20
66598;DHT22;57424;53.128;6.406;2023-11-21T06:11:01;11.20;84.30
66598;DHT22;57424;53.128;6.406;2023-11-21T06:13:27;11.20;84.30
66598;DHT22;57424;53.128;6.406;2023-11-21T06:15:53;11.20;84.30
66598;DHT22;57424;53.128;6.406;2023-11-21T06:18:19;11.20;84.30
66598;DHT22;57424;53.128;6.406;2023-11-21T06:20:47;11.20;84.30
66598;DHT22;57424;53.128;6.406;2023-11-21T06:23:13;11.20;84.30
66598;DHT22;57424;53.128;6.406;2023-11-21T06:25:39;11.20;84.30
66598;DHT22;57424;53.128;6.406;2023-11-21T06:28:05;11.20;84.30
66598;DHT22;57424;53.128;6.406;2023-11-21T06:30:31;11.20;84.30
66598;DHT22;57424;53.128;6.406;2023-11-21T06:32:57;11.20;84.40
66598;DHT22;57424;53.128;6.406;2023-11-21T06:35:22;11.20;84.40
66598;DHT22;57424;53.128;6.406;2023-11-21T06:37:48;11.20;84.40
66598;DHT22;57424;53.128;6.406;2023-11-21T06:40:14;11.20;84.30
66598;DHT22;57424;53.128;6.406;2023-11-21T06:42:40;11.20;84.40
66598;DHT22;57424;53.128;6.406;2023-11-21T06:45:06;11.20;84.40
66598;DHT22;57424;53.128;6.406;2023-11-21T06:47:32;11.20;84.40
66598;DHT22;57424;53.128;6.406;2023-11-21T06:49:58;11.30;84.50
66598;DHT22;57424;53.128;6.406;2023-11-21T06:52:24;11.20;84.50
66598;DHT22;57424;53.128;6.406;2023-11-21T06:54:49;11.30;84.50
66598;DHT22;57424;53.128;6.406;2023-11-21T06:57:15;11.30;84.50
66598;DHT22;57424;53.128;6.406;2023-11-21T06:59:40;11.30;84.50
66598;DHT22;57424;53.128;6.406;2023-11-21T07:02:06;11.30;84.50
66598;DHT22;57424;53.128;6.406;2023-11-21T07:04:35;11.30;84.50
66598;DHT22;57424;53.128;6.406;2023-11-21T07:07:02;11.30;84.50
66598;DHT22;57424;53.128;6.406;2023-11-21T07:09:27;11.30;84.60
66598;DHT22;57424;53.128;6.406;2023-11-21T07:11:53;11.30;84.60
66598;DHT22;57424;53.128;6.406;2023-11-21T07:14:19;11.30;84.60
66598;DHT22;57424;53.128;6.406;2023-11-21T07:16:45;11.30;84.50
66598;DHT22;57424;53.128;6.406;2023-11-21T07:19:10;11.30;84.60
66598;DHT22;57424;53.128;6.406;2023-11-21T07:21:37;11.30;84.60
66598;DHT22;57424;53.128;6.406;2023-11-21T07:24:03;11.30;84.60
66598;DHT22;57424;53.128;6.406;2023-11-21T07:26:29;11.30;84.60
66598;DHT22;57424;53.128;6.406;2023-11-21T07:28:55;11.30;84.60
66598;DHT22;57424;53.128;6.406;2023-11-21T07:31:21;11.30;84.60
66598;DHT22;57424;53.128;6.406;2023-11-21T07:33:47;11.30;84.70
66598;DHT22;57424;53.128;6.406;2023-11-21T07:36:13;11.30;84.70
66598;DHT22;57424;53.128;6.406;2023-11-21T07:38:38;11.30;84.70
66598;DHT22;57424;53.128;6.406;2023-11-21T07:41:04;11.30;84.70
66598;DHT22;57424;53.128;6.406;2023-11-21T07:43:30;11.40;84.70
66598;DHT22;57424;53.128;6.406;2023-11-21T07:46:03;11.40;85.30
66598;DHT22;57424;53.128;6.406;2023-11-21T07:48:29;11.40;84.70
66598;DHT22;57424;53.128;6.406;2023-11-21T07:50:55;11.30;84.70
66598;DHT22;57424;53.128;6.406;2023-11-21T07:53:20;11.40;84.70
66598;DHT22;57424;53.128;6.406;2023-11-21T07:55:47;11.40;84.70
66598;DHT22;57424;53.128;6.406;2023-11-21T07:58:12;11.40;84.70
66598;DHT22;57424;53.128;6.406;2023-11-21T08:00:38;11.40;84.70
66598;DHT22;57424;53.128;6.406;2023-11-21T08:03:04;11.40;84.70
66598;DHT22;57424;53.128;6.406;2023-11-21T08:05:31;11.40;84.70
66598;DHT22;57424;53.128;6.406;2023-11-21T08:07:56;11.40;84.70
66598;DHT22;57424;53.128;6.406;2023-11-21T08:10:22;11.40;84.70
66598;DHT22;57424;53.128;6.406;2023-11-21T08:12:48;11.40;84.70
66598;DHT22;57424;53.128;6.406;2023-11-21T08:15:15;11.40;84.70
66598;DHT22;57424;53.128;6.406;2023-11-21T08:17:41;11.40;84.70
66598;DHT22;57424;53.128;6.406;2023-11-21T08:20:06;11.40;84.70
66598;DHT22;57424;53.128;6.406;2023-11-21T08:22:33;11.40;85.30
66598;DHT22;57424;53.128;6.406;2023-11-21T08:24:59;11.40;84.70
66598;DHT22;57424;53.128;6.406;2023-11-21T08:27:25;11.40;84.70
66598;DHT22;57424;53.128;6.406;2023-11-21T08:29:50;11.40;84.70
66598;DHT22;57424;53.128;6.406;2023-11-21T08:32:17;11.40;84.70
66598;DHT22;57424;53.128;6.406;2023-11-21T08:34:43;11.40;84.60
66598;DHT22;57424;53.128;6.406;2023-11-21T08:37:10;11.40;84.70
66598;DHT22;57424;53.128;6.406;2023-11-21T08:39:36;11.40;84.60
66598;DHT22;57424;53.128;6.406;2023-11-21T08:42:02;11.40;84.70
66598;DHT22;57424;53.128;6.406;2023-11-21T08:44:28;11.40;84.60
66598;DHT22;57424;53.128;6.406;2023-11-21T08:46:53;11.40;84.70
66598;DHT22;57424;53.128;6.406;2023-11-21T08:49:19;11.40;84.60
66598;DHT22;57424;53.128;6.406;2023-11-21T08:51:44;11.40;84.60
66598;DHT22;57424;53.128;6.406;2023-11-21T08:54:10;11.40;84.60
66598;DHT22;57424;53.128;6.406;2023-11-21T08:56:37;11.40;84.70
66598;DHT22;57424;53.128;6.406;2023-11-21T08:59:02;11.40;84.90
66598;DHT22;57424;53.128;6.406;2023-11-21T09:01:29;11.40;84.90
66598;DHT22;57424;53.128;6.406;2023-11-21T09:03:59;11.40;84.80
66598;DHT22;57424;53.128;6.406;2023-11-21T09:06:25;11.40;84.80
66598;DHT22;57424;53.128;6.406;2023-11-21T09:08:50;11.40;84.70
66598;DHT22;57424;53.128;6.406;2023-11-21T09:11:16;11.40;84.80
66598;DHT22;57424;53.128;6.406;2023-11-21T09:13:42;11.40;84.70
66598;DHT22;57424;53.128;6.406;2023-11-21T09:16:07;11.40;84.70
66598;DHT22;57424;53.128;6.406;2023-11-21T09:18:33;11.50;84.70
66598;DHT22;57424;53.128;6.406;2023-11-21T09:20:59;11.40;84.70
66598;DHT22;57424;53.128;6.406;2023-11-21T09:23:24;11.40;84.60
66598;DHT22;57424;53.128;6.406;2023-11-21T09:25:50;11.40;84.60
66598;DHT22;57424;53.128;6.406;2023-11-21T09:28:17;11.50;84.70
66598;DHT22;57424;53.128;6.406;2023-11-21T09:30:43;11.50;84.70
66598;DHT22;57424;53.128;6.406;2023-11-21T09:33:08;11.40;84.60
66598;DHT22;57424;53.128;6.406;2023-11-21T09:35:39;11.50;84.60
66598;DHT22;57424;53.128;6.406;2023-11-21T09:38:04;11.40;84.60
66598;DHT22;57424;53.128;6.406;2023-11-21T09:40:36;11.50;84.60
66598;DHT22;57424;53.128;6.406;2023-11-21T09:43:05;11.40;84.60
66598;DHT22;57424;53.128;6.406;2023-11-21T09:45:34;11.40;84.60
66598;DHT22;57424;53.128;6.406;2023-11-21T09:48:00;11.40;84.50
66598;DHT22;57424;53.128;6.406;2023-11-21T09:50:26;11.40;84.50
66598;DHT22;57424;53.128;6.406;2023-11-21T09:53:03;11.40;84.50
66598;DHT22;57424;53.128;6.406;2023-11-21T09:55:32;11.40;84.50
66598;DHT22;57424;53.128;6.406;2023-11-21T09:58:01;11.40;84.50
66598;DHT22;57424;53.128;6.406;2023-11-21T10:00:27;11.40;84.50
66598;DHT22;57424;53.128;6.406;2023-11-21T10:02:53;11.40;84.50
66598;DHT22;57424;53.128;6.406;2023-11-21T10:05:19;11.40;84.50
66598;DHT22;57424;53.128;6.406;2023-11-21T10:07:48;11.40;84.50
66598;DHT22;57424;53.128;6.406;2023-11-21T10:10:14;11.40;84.50
66598;DHT22;57424;53.128;6.406;2023-11-21T10:12:41;11.40;84.50
66598;DHT22;57424;53.128;6.406;2023-11-21T10:15:08;11.40;84.40
66598;DHT22;57424;53.128;6.406;2023-11-21T10:17:37;11.40;84.50
66598;DHT22;57424;53.128;6.406;2023-11-21T10:20:08;11.40;84.40
66598;DHT22;57424;53.128;6.406;2023-11-21T10:22:39;11.40;84.40
66598;DHT22;57424;53.128;6.406;2023-11-21T10:25:06;11.40;84.40
66598;DHT22;57424;53.128;6.406;2023-11-21T10:27:33;11.40;84.40
66598;DHT22;57424;53.128;6.406;2023-11-21T10:30:02;11.40;84.40
66598;DHT22;57424;53.128;6.406;2023-11-21T10:32:29;11.40;84.40
66598;DHT22;57424;53.128;6.406;2023-11-21T10:34:57;11.40;84.40
66598;DHT22;57424;53.128;6.406;2023-11-21T10:37:25;11.40;84.40
66598;DHT22;57424;53.128;6.406;2023-11-21T10:39:50;11.30;84.30
66598;DHT22;57424;53.128;6.406;2023-11-21T10:42:16;11.30;84.40
66598;DHT22;57424;53.128;6.406;2023-11-21T10:44:43;11.30;84.40
66598;DHT22;57424;53.128;6.406;2023-11-21T10:47:10;11.30;84.30
66598;DHT22;57424;53.128;6.406;2023-11-21T10:49:37;11.30;84.40
66598;DHT22;57424;53.128;6.406;2023-11-21T10:52:03;11.40;84.40
66598;DHT22;57424;53.128;6.406;2023-11-21T10:54:29;11.30;84.30
66598;DHT22;57424;53.128;6.406;2023-11-21T10:56:58;11.30;84.40
66598;DHT22;57424;53.128;6.406;2023-11-21T10:59:25;11.30;84.30
66598;DHT22;57424;53.128;6.406;2023-11-21T11:01:52;11.30;84.30
66598;DHT22;57424;53.128;6.406;2023-11-21T11:04:19;11.30;84.30
66598;DHT22;57424;53.128;6.406;2023-11-21T11:06:45;11.30;84.30
66598;DHT22;57424;53.128;6.406;2023-11-21T11:09:16;11.30;84.30
66598;DHT22;57424;53.128;6.406;2023-11-21T11:11:42;11.30;84.30
66598;DHT22;57424;53.128;6.406;2023-11-21T11:14:13;11.30;84.30
66598;DHT22;57424;53.128;6.406;2023-11-21T11:16:39;11.30;84.30
66598;DHT22;57424;53.128;6.406;2023-11-21T11:19:09;11.30;84.30
66598;DHT22;57424;53.128;6.406;2023-11-21T11:27:09;11.30;84.30
66598;DHT22;57424;53.128;6.406;2023-11-21T11:29:46;11.30;84.30
66598;DHT22;57424;53.128;6.406;2023-11-21T11:34:47;11.30;84.30
66598;DHT22;57424;53.128;6.406;2023-11-21T11:37:15;11.30;84.30
66598;DHT22;57424;53.128;6.406;2023-11-21T11:39:41;11.30;84.30
66598;DHT22;57424;53.128;6.406;2023-11-21T11:42:28;11.20;84.20
66598;DHT22;57424;53.128;6.406;2023-11-21T11:44:52;11.30;84.30
66598;DHT22;57424;53.128;6.406;2023-11-21T11:50:01;11.30;84.30
66598;DHT22;57424;53.128;6.406;2023-11-21T11:52:53;11.30;84.30
66598;DHT22;57424;53.128;6.406;2023-11-21T11:55:20;11.30;84.30
66598;DHT22;57424;53.128;6.406;2023-11-21T11:57:50;11.20;84.20
66598;DHT22;57424;53.128;6.406;2023-11-21T12:00:17;11.20;84.20
66598;DHT22;57424;53.128;6.406;2023-11-21T12:02:50;11.30;84.20
66598;DHT22;57424;53.128;6.406;2023-11-21T12:05:18;11.20;84.20
66598;DHT22;57424;53.128;6.406;2023-11-21T12:07:48;11.20;84.20
66598;DHT22;57424;53.128;6.406;2023-11-21T12:10:15;11.20;84.20
66598;DHT22;57424;53.128;6.406;2023-11-21T12:12:46;11.20;84.20
66598;DHT22;57424;53.128;6.406;2023-11-21T12:15:12;11.20;84.20
66598;DHT22;57424;53.128;6.406;2023-11-21T12:17:38;11.20;84.20
66598;DHT22;57424;53.128;6.406;2023-11-21T12:20:04;11.20;84.20
66598;DHT22;57424;53.128;6.406;2023-11-21T12:22:31;11.20;84.20
66598;DHT22;57424;53.128;6.406;2023-11-21T12:24:56;11.20;84.20
66598;DHT22;57424;53.128;6.406;2023-11-21T12:27:22;11.20;84.20
66598;DHT22;57424;53.128;6.406;2023-11-21T12:29:47;11.20;84.20
66598;DHT22;57424;53.128;6.406;2023-11-21T12:32:13;11.20;84.20
66598;DHT22;57424;53.128;6.406;2023-11-21T12:34:40;11.20;84.20
66598;DHT22;57424;53.128;6.406;2023-11-21T12:37:06;11.20;84.20
66598;DHT22;57424;53.128;6.406;2023-11-21T12:39:31;11.20;84.20
66598;DHT22;57424;53.128;6.406;2023-11-21T12:41:57;11.20;84.20
66598;DHT22;57424;53.128;6.406;2023-11-21T12:44:22;11.20;84.20
66598;DHT22;57424;53.128;6.406;2023-11-21T12:46:49;11.20;84.20
66598;DHT22;57424;53.128;6.406;2023-11-21T12:49:15;11.20;84.20
66598;DHT22;57424;53.128;6.406;2023-11-21T12:51:43;11.20;84.20
66598;DHT22;57424;53.128;6.406;2023-11-21T12:54:10;11.20;84.20
66598;DHT22;57424;53.128;6.406;2023-11-21T12:56:39;11.20;84.20
66598;DHT22;57424;53.128;6.406;2023-11-21T12:59:04;11.20;84.20
66598;DHT22;57424;53.128;6.406;2023-11-21T13:01:30;11.20;84.20
66598;DHT22;57424;53.128;6.406;2023-11-21T13:03:57;11.20;84.20
66598;DHT22;57424;53.128;6.406;2023-11-21T13:06:22;11.20;84.20
66598;DHT22;57424;53.128;6.406;2023-11-21T13:08:50;11.20;84.20
66598;DHT22;57424;53.128;6.406;2023-11-21T13:11:16;11.20;84.20
66598;DHT22;57424;53.128;6.406;2023-11-21T13:13:43;11.20;84.10
